sensor_id;sensor_type;location;lat;lon;timestamp;temperature;humidity
77865;DHT22;67061;48.524;9.040;2023-08-24T00:01:56;18.10;86.40
77865;DHT22;67061;48.524;9.040;2023-08-24T00:04:23;18.10;86.60
77865;DHT22;67061;48.524;9.040;2023-08-24T00:06:50;18.10;86.40
77865;DHT22;67061;48.524;9.040;2023-08-24T00:09:17;18.10;86.60
77865;DHT22;67061;48.524;9.040;2023-08-24T00:11:44;18.20;86.40
77865;DHT22;67061;48.524;9.040;2023-08-24T00:14:12;18.20;86.30
77865;DHT22;67061;48.524;9.040;2023-08-24T00:16:39;18.20;86.70
77865;DHT22;67061;48.524;9.040;2023-08-24T00:19:06;18.20;86.90
77865;DHT22;67061;48.524;9.040;2023-08-24T00:21:33;18.10;86.60
77865;DHT22;67061;48.524;9.040;2023-08-24T00:24:00;18.10;86.50
77865;DHT22;67061;48.524;9.040;2023-08-24T00:26:27;18.20;86.80
77865;DHT22;67061;48.524;9.040;2023-08-24T00:28:54;18.10;86.50
77865;DHT22;67061;48.524;9.040;2023-08-24T00:31:22;18.10;86.50
77865;DHT22;67061;48.524;9.040;2023-08-24T00:33:49;18.10;86.50
77865;DHT22;67061;48.524;9.040;2023-08-24T00:36:16;18.00;86.90
77865;DHT22;67061;48.524;9.040;2023-08-24T00:38:44;18.00;87.20
77865;DHT22;67061;48.524;9.040;2023-08-24T00:41:16;18.00;87.20
77865;DHT22;67061;48.524;9.040;2023-08-24T00:43:43;18.00;86.70
77865;DHT22;67061;48.524;9.040;2023-08-24T00:46:10;18.00;87.00
77865;DHT22;67061;48.524;9.040;2023-08-24T00:48:38;18.00;87.50
77865;DHT22;67061;48.524;9.040;2023-08-24T00:51:05;17.80;88.00
77865;DHT22;67061;48.524;9.040;2023-08-24T00:53:32;17.80;88.20
77865;DHT22;67061;48.524;9.040;2023-08-24T00:55:59;17.80;88.50
77865;DHT22;67061;48.524;9.040;2023-08-24T00:58:27;17.80;88.40
77865;DHT22;67061;48.524;9.040;2023-08-24T01:00:55;17.80;87.70
77865;DHT22;67061;48.524;9.040;2023-08-24T01:03:22;17.80;87.90
77865;DHT22;67061;48.524;9.040;2023-08-24T01:05:51;17.80;88.30
77865;DHT22;67061;48.524;9.040;2023-08-24T01:08:18;17.80;87.90
77865;DHT22;67061;48.524;9.040;2023-08-24T01:10:50;17.80;88.70
77865;DHT22;67061;48.524;9.040;2023-08-24T01:13:24;17.80;88.00
77865;DHT22;67061;48.524;9.040;2023-08-24T01:16:00;17.60;88.70
77865;DHT22;67061;48.524;9.040;2023-08-24T01:18:30;17.70;88.30
77865;DHT22;67061;48.524;9.040;2023-08-24T01:20:59;17.60;88.70
77865;DHT22;67061;48.524;9.040;2023-08-24T01:23:36;17.60;89.20
77865;DHT22;67061;48.524;9.040;2023-08-24T01:26:09;17.60;88.30
77865;DHT22;67061;48.524;9.040;2023-08-24T01:28:37;17.60;88.70
77865;DHT22;67061;48.524;9.040;2023-08-24T01:31:04;17.50;88.60
77865;DHT22;67061;48.524;9.040;2023-08-24T01:33:31;17.50;89.50
77865;DHT22;67061;48.524;9.040;2023-08-24T01:35:58;17.50;89.50
77865;DHT22;67061;48.524;9.040;2023-08-24T01:38:25;17.40;89.20
77865;DHT22;67061;48.524;9.040;2023-08-24T01:40:59;17.40;89.70
77865;DHT22;67061;48.524;9.040;2023-08-24T01:43:30;17.30;90.10
77865;DHT22;67061;48.524;9.040;2023-08-24T01:46:03;17.30;89.90
77865;DHT22;67061;48.524;9.040;2023-08-24T01:48:31;17.20;89.80
77865;DHT22;67061;48.524;9.040;2023-08-24T01:50:58;17.20;90.20
77865;DHT22;67061;48.524;9.040;2023-08-24T01:53:29;17.20;90.30
77865;DHT22;67061;48.524;9.040;2023-08-24T01:55:56;17.20;90.20
77865;DHT22;67061;48.524;9.040;2023-08-24T01:58:23;17.20;90.20
77865;DHT22;67061;48.524;9.040;2023-08-24T02:00:51;17.20;90.40
77865;DHT22;67061;48.524;9.040;2023-08-24T02:03:17;17.20;90.60
77865;DHT22;67061;48.524;9.040;2023-08-24T02:05:44;17.20;90.70
77865;DHT22;67061;48.524;9.040;2023-08-24T02:08:11;17.20;90.30
77865;DHT22;67061;48.524;9.040;2023-08-24T02:10:38;17.20;90.50
77865;DHT22;67061;48.524;9.040;2023-08-24T02:13:05;17.20;90.70
77865;DHT22;67061;48.524;9.040;2023-08-24T02:15:32;17.10;90.20
77865;DHT22;67061;48.524;9.040;2023-08-24T02:18:00;17.00;90.80
77865;DHT22;67061;48.524;9.040;2023-08-24T02:20:27;17.00;91.00
77865;DHT22;67061;48.524;9.040;2023-08-24T02:22:54;16.90;91.50
77865;DHT22;67061;48.524;9.040;2023-08-24T02:25:20;16.80;92.00
77865;DHT22;67061;48.524;9.040;2023-08-24T02:27:47;16.70;92.10
77865;DHT22;67061;48.524;9.040;2023-08-24T02:30:14;16.70;92.70
77865;DHT22;67061;48.524;9.040;2023-08-24T02:32:41;16.60;92.20
77865;DHT22;67061;48.524;9.040;2023-08-24T02:35:10;16.60;93.00
77865;DHT22;67061;48.524;9.040;2023-08-24T02:37:36;16.60;93.20
77865;DHT22;67061;48.524;9.040;2023-08-24T02:40:04;16.70;92.90
77865;DHT22;67061;48.524;9.040;2023-08-24T02:42:31;16.70;92.70
77865;DHT22;67061;48.524;9.040;2023-08-24T02:44:59;16.80;92.00
77865;DHT22;67061;48.524;9.040;2023-08-24T02:47:26;16.80;91.80
77865;DHT22;67061;48.524;9.040;2023-08-24T02:49:53;16.80;91.80
77865;DHT22;67061;48.524;9.040;2023-08-24T02:52:21;16.80;92.00
77865;DHT22;67061;48.524;9.040;2023-08-24T02:54:48;16.80;92.10
77865;DHT22;67061;48.524;9.040;2023-08-24T02:57:15;16.80;92.00
77865;DHT22;67061;48.524;9.040;2023-08-24T02:59:42;16.80;92.40
77865;DHT22;67061;48.524;9.040;2023-08-24T03:02:10;16.70;92.30
77865;DHT22;67061;48.524;9.040;2023-08-24T03:04:37;16.70;92.60
77865;DHT22;67061;48.524;9.040;2023-08-24T03:07:03;16.70;92.60
77865;DHT22;67061;48.524;9.040;2023-08-24T03:09:34;16.70;92.50
77865;DHT22;67061;48.524;9.040;2023-08-24T03:12:01;16.70;92.20
77865;DHT22;67061;48.524;9.040;2023-08-24T03:14:28;16.70;92.70
77865;DHT22;67061;48.524;9.040;2023-08-24T03:16:55;16.70;92.00
77865;DHT22;67061;48.524;9.040;2023-08-24T03:19:22;16.70;92.80
77865;DHT22;67061;48.524;9.040;2023-08-24T03:21:49;16.70;92.40
77865;DHT22;67061;48.524;9.040;2023-08-24T03:24:16;16.70;92.30
77865;DHT22;67061;48.524;9.040;2023-08-24T03:26:44;16.70;92.50
77865;DHT22;67061;48.524;9.040;2023-08-24T03:29:11;16.70;92.50
77865;DHT22;67061;48.524;9.040;2023-08-24T03:31:38;16.70;92.70
77865;DHT22;67061;48.524;9.040;2023-08-24T03:34:05;16.70;92.70
77865;DHT22;67061;48.524;9.040;2023-08-24T03:36:32;16.70;92.40
77865;DHT22;67061;48.524;9.040;2023-08-24T03:38:58;16.70;93.00
77865;DHT22;67061;48.524;9.040;2023-08-24T03:41:25;16.70;92.80
77865;DHT22;67061;48.524;9.040;2023-08-24T03:43:54;16.70;93.20
77865;DHT22;67061;48.524;9.040;2023-08-24T03:46:21;16.80;92.70
77865;DHT22;67061;48.524;9.040;2023-08-24T03:48:47;16.80;93.00
77865;DHT22;67061;48.524;9.040;2023-08-24T03:51:14;16.80;93.00
77865;DHT22;67061;48.524;9.040;2023-08-24T03:53:41;16.80;92.70
77865;DHT22;67061;48.524;9.040;2023-08-24T03:56:08;16.90;93.00
77865;DHT22;67061;48.524;9.040;2023-08-24T03:58:35;16.90;92.70
77865;DHT22;67061;48.524;9.040;2023-08-24T04:01:03;17.00;92.40
77865;DHT22;67061;48.524;9.040;2023-08-24T04:03:32;17.00;92.50
77865;DHT22;67061;48.524;9.040;2023-08-24T04:05:59;17.00;93.10
77865;DHT22;67061;48.524;9.040;2023-08-24T04:08:26;17.00;93.10
77865;DHT22;67061;48.524;9.040;2023-08-24T04:10:53;17.00;94.00
77865;DHT22;67061;48.524;9.040;2023-08-24T04:13:20;17.00;93.60
77865;DHT22;67061;48.524;9.040;2023-08-24T04:15:47;17.10;94.10
77865;DHT22;67061;48.524;9.040;2023-08-24T04:18:15;17.20;93.70
77865;DHT22;67061;48.524;9.040;2023-08-24T04:20:42;17.20;92.50
77865;DHT22;67061;48.524;9.040;2023-08-24T04:23:09;17.20;92.60
77865;DHT22;67061;48.524;9.040;2023-08-24T04:25:39;17.10;92.80
77865;DHT22;67061;48.524;9.040;2023-08-24T04:28:06;17.20;92.70
77865;DHT22;67061;48.524;9.040;2023-08-24T04:30:33;17.20;92.60
77865;DHT22;67061;48.524;9.040;2023-08-24T04:33:00;17.20;92.40
77865;DHT22;67061;48.524;9.040;2023-08-24T04:35:33;17.20;92.70
77865;DHT22;67061;48.524;9.040;2023-08-24T04:38:00;17.30;92.30
77865;DHT22;67061;48.524;9.040;2023-08-24T04:40:27;17.40;92.00
77865;DHT22;67061;48.524;9.040;2023-08-24T04:42:54;17.40;91.90
77865;DHT22;67061;48.524;9.040;2023-08-24T04:45:21;17.40;92.50
77865;DHT22;67061;48.524;9.040;2023-08-24T04:47:48;17.40;92.50
77865;DHT22;67061;48.524;9.040;2023-08-24T04:50:14;17.50;92.20
77865;DHT22;67061;48.524;9.040;2023-08-24T04:52:43;17.40;92.20
77865;DHT22;67061;48.524;9.040;2023-08-24T04:55:10;17.50;92.40
77865;DHT22;67061;48.524;9.040;2023-08-24T04:57:36;17.50;92.50
77865;DHT22;67061;48.524;9.040;2023-08-24T05:00:04;17.50;92.60
77865;DHT22;67061;48.524;9.040;2023-08-24T05:02:31;17.40;92.80
77865;DHT22;67061;48.524;9.040;2023-08-24T05:04:58;17.40;93.00
77865;DHT22;67061;48.524;9.040;2023-08-24T05:07:25;17.40;93.10
77865;DHT22;67061;48.524;9.040;2023-08-24T05:09:55;17.40;93.50
77865;DHT22;67061;48.524;9.040;2023-08-24T05:12:21;17.40;93.00
77865;DHT22;67061;48.524;9.040;2023-08-24T05:14:48;17.40;93.30
77865;DHT22;67061;48.524;9.040;2023-08-24T05:17:15;17.50;92.90
77865;DHT22;67061;48.524;9.040;2023-08-24T05:19:42;17.50;92.70
77865;DHT22;67061;48.524;9.040;2023-08-24T05:22:09;17.50;92.50
77865;DHT22;67061;48.524;9.040;2023-08-24T05:24:36;17.50;92.30
77865;DHT22;67061;48.524;9.040;2023-08-24T05:27:04;17.50;92.30
77865;DHT22;67061;48.524;9.040;2023-08-24T05:29:31;17.50;92.40
77865;DHT22;67061;48.524;9.040;2023-08-24T05:31:59;17.50;92.60
77865;DHT22;67061;48.524;9.040;2023-08-24T05:34:26;17.40;93.00
77865;DHT22;67061;48.524;9.040;2023-08-24T05:36:53;17.50;93.30
77865;DHT22;67061;48.524;9.040;2023-08-24T05:39:19;17.50;93.20
77865;DHT22;67061;48.524;9.040;2023-08-24T05:41:50;17.50;92.80
77865;DHT22;67061;48.524;9.040;2023-08-24T05:44:18;17.50;92.90
77865;DHT22;67061;48.524;9.040;2023-08-24T05:46:46;17.60;92.50
77865;DHT22;67061;48.524;9.040;2023-08-24T05:49:14;17.70;92.40
77865;DHT22;67061;48.524;9.040;2023-08-24T05:51:41;17.80;92.00
77865;DHT22;67061;48.524;9.040;2023-08-24T05:54:08;17.80;91.70
77865;DHT22;67061;48.524;9.040;2023-08-24T05:56:34;17.80;91.30
77865;DHT22;67061;48.524;9.040;2023-08-24T05:59:01;17.90;91.40
77865;DHT22;67061;48.524;9.040;2023-08-24T06:01:30;18.00;90.90
77865;DHT22;67061;48.524;9.040;2023-08-24T06:03:56;18.00;90.80
77865;DHT22;67061;48.524;9.040;2023-08-24T06:06:23;18.00;90.40
77865;DHT22;67061;48.524;9.040;2023-08-24T06:08:50;18.00;90.50
77865;DHT22;67061;48.524;9.040;2023-08-24T06:11:17;18.00;90.90
77865;DHT22;67061;48.524;9.040;2023-08-24T06:13:44;18.00;90.90
77865;DHT22;67061;48.524;9.040;2023-08-24T06:16:11;18.00;91.40
77865;DHT22;67061;48.524;9.040;2023-08-24T06:18:39;18.00;91.40
77865;DHT22;67061;48.524;9.040;2023-08-24T06:21:06;18.00;91.40
77865;DHT22;67061;48.524;9.040;2023-08-24T06:23:34;18.10;91.10
77865;DHT22;67061;48.524;9.040;2023-08-24T06:26:00;18.10;90.90
77865;DHT22;67061;48.524;9.040;2023-08-24T06:28:28;18.20;90.60
77865;DHT22;67061;48.524;9.040;2023-08-24T06:30:55;18.30;90.30
77865;DHT22;67061;48.524;9.040;2023-08-24T06:33:27;18.30;89.90
77865;DHT22;67061;48.524;9.040;2023-08-24T06:35:57;18.30;89.60
77865;DHT22;67061;48.524;9.040;2023-08-24T06:38:24;18.40;89.20
77865;DHT22;67061;48.524;9.040;2023-08-24T06:40:50;18.40;89.40
77865;DHT22;67061;48.524;9.040;2023-08-24T06:43:17;18.50;89.00
77865;DHT22;67061;48.524;9.040;2023-08-24T06:45:44;18.50;88.90
77865;DHT22;67061;48.524;9.040;2023-08-24T06:48:11;18.60;89.20
77865;DHT22;67061;48.524;9.040;2023-08-24T06:50:38;18.60;89.00
77865;DHT22;67061;48.524;9.040;2023-08-24T06:53:06;18.70;89.00
77865;DHT22;67061;48.524;9.040;2023-08-24T06:55:33;18.70;89.20
77865;DHT22;67061;48.524;9.040;2023-08-24T06:58:00;18.70;89.00
77865;DHT22;67061;48.524;9.040;2023-08-24T07:00:27;18.80;88.80
77865;DHT22;67061;48.524;9.040;2023-08-24T07:02:54;18.80;88.50
77865;DHT22;67061;48.524;9.040;2023-08-24T07:05:21;18.80;88.30
77865;DHT22;67061;48.524;9.040;2023-08-24T07:07:49;18.90;88.30
77865;DHT22;67061;48.524;9.040;2023-08-24T07:10:18;18.90;88.10
77865;DHT22;67061;48.524;9.040;2023-08-24T07:12:45;19.10;88.00
77865;DHT22;67061;48.524;9.040;2023-08-24T07:15:12;19.20;87.60
77865;DHT22;67061;48.524;9.040;2023-08-24T07:17:39;19.30;87.20
77865;DHT22;67061;48.524;9.040;2023-08-24T07:20:07;19.40;87.20
77865;DHT22;67061;48.524;9.040;2023-08-24T07:22:34;19.40;86.60
77865;DHT22;67061;48.524;9.040;2023-08-24T07:25:02;19.50;86.40
77865;DHT22;67061;48.524;9.040;2023-08-24T07:27:32;19.50;85.60
77865;DHT22;67061;48.524;9.040;2023-08-24T07:29:58;19.70;85.50
77865;DHT22;67061;48.524;9.040;2023-08-24T07:32:26;19.70;84.20
77865;DHT22;67061;48.524;9.040;2023-08-24T07:34:53;19.70;84.20
77865;DHT22;67061;48.524;9.040;2023-08-24T07:37:20;19.70;84.50
77865;DHT22;67061;48.524;9.040;2023-08-24T07:39:47;19.80;84.10
77865;DHT22;67061;48.524;9.040;2023-08-24T07:42:14;19.70;83.90
77865;DHT22;67061;48.524;9.040;2023-08-24T07:44:52;19.70;84.40
77865;DHT22;67061;48.524;9.040;2023-08-24T07:47:19;19.70;84.20
77865;DHT22;67061;48.524;9.040;2023-08-24T07:49:46;19.70;83.70
77865;DHT22;67061;48.524;9.040;2023-08-24T07:52:13;19.80;83.10
77865;DHT22;67061;48.524;9.040;2023-08-24T07:54:39;19.90;83.50
77865;DHT22;67061;48.524;9.040;2023-08-24T07:57:07;20.00;83.50
77865;DHT22;67061;48.524;9.040;2023-08-24T07:59:33;20.10;83.50
77865;DHT22;67061;48.524;9.040;2023-08-24T08:02:02;20.30;82.80
77865;DHT22;67061;48.524;9.040;2023-08-24T08:04:29;20.30;82.50
77865;DHT22;67061;48.524;9.040;2023-08-24T08:06:56;20.40;82.80
77865;DHT22;67061;48.524;9.040;2023-08-24T08:09:22;20.50;81.90
77865;DHT22;67061;48.524;9.040;2023-08-24T08:11:49;20.60;81.40
77865;DHT22;67061;48.524;9.040;2023-08-24T08:14:17;20.70;81.40
77865;DHT22;67061;48.524;9.040;2023-08-24T08:16:44;20.90;81.00
77865;DHT22;67061;48.524;9.040;2023-08-24T08:19:13;21.00;80.20
77865;DHT22;67061;48.524;9.040;2023-08-24T08:21:39;21.10;79.60
77865;DHT22;67061;48.524;9.040;2023-08-24T08:24:06;21.10;79.60
77865;DHT22;67061;48.524;9.040;2023-08-24T08:26:33;21.30;79.50
77865;DHT22;67061;48.524;9.040;2023-08-24T08:29:01;21.40;78.80
77865;DHT22;67061;48.524;9.040;2023-08-24T08:31:27;21.50;77.90
77865;DHT22;67061;48.524;9.040;2023-08-24T08:33:54;21.70;76.90
77865;DHT22;67061;48.524;9.040;2023-08-24T08:36:23;21.70;77.30
77865;DHT22;67061;48.524;9.040;2023-08-24T08:38:49;21.90;76.70
77865;DHT22;67061;48.524;9.040;2023-08-24T08:41:17;21.90;76.50
77865;DHT22;67061;48.524;9.040;2023-08-24T08:43:48;22.10;76.30
77865;DHT22;67061;48.524;9.040;2023-08-24T08:46:16;22.10;74.70
77865;DHT22;67061;48.524;9.040;2023-08-24T08:48:44;22.20;75.50
77865;DHT22;67061;48.524;9.040;2023-08-24T08:51:12;22.20;75.00
77865;DHT22;67061;48.524;9.040;2023-08-24T08:53:41;22.30;74.50
77865;DHT22;67061;48.524;9.040;2023-08-24T08:56:08;22.50;74.20
77865;DHT22;67061;48.524;9.040;2023-08-24T08:58:36;22.60;74.40
77865;DHT22;67061;48.524;9.040;2023-08-24T09:01:04;22.70;73.70
77865;DHT22;67061;48.524;9.040;2023-08-24T09:03:31;22.80;73.10
77865;DHT22;67061;48.524;9.040;2023-08-24T09:05:58;23.00;72.60
77865;DHT22;67061;48.524;9.040;2023-08-24T09:08:26;23.20;73.20
77865;DHT22;67061;48.524;9.040;2023-08-24T09:10:55;23.30;72.90
77865;DHT22;67061;48.524;9.040;2023-08-24T09:13:22;23.50;72.20
77865;DHT22;67061;48.524;9.040;2023-08-24T09:15:51;23.60;71.10
77865;DHT22;67061;48.524;9.040;2023-08-24T09:18:19;23.80;70.90
77865;DHT22;67061;48.524;9.040;2023-08-24T09:20:47;24.00;70.40
77865;DHT22;67061;48.524;9.040;2023-08-24T09:23:18;24.10;70.70
77865;DHT22;67061;48.524;9.040;2023-08-24T09:25:46;24.30;70.10
77865;DHT22;67061;48.524;9.040;2023-08-24T09:28:22;24.40;70.40
77865;DHT22;67061;48.524;9.040;2023-08-24T09:30:52;24.60;68.70
77865;DHT22;67061;48.524;9.040;2023-08-24T09:33:20;24.70;69.10
77865;DHT22;67061;48.524;9.040;2023-08-24T09:35:52;24.90;68.20
77865;DHT22;67061;48.524;9.040;2023-08-24T09:38:21;25.00;68.30
77865;DHT22;67061;48.524;9.040;2023-08-24T09:40:51;25.00;68.50
77865;DHT22;67061;48.524;9.040;2023-08-24T09:43:20;25.20;68.50
77865;DHT22;67061;48.524;9.040;2023-08-24T09:45:48;25.30;67.50
77865;DHT22;67061;48.524;9.040;2023-08-24T09:48:15;25.40;67.00
77865;DHT22;67061;48.524;9.040;2023-08-24T09:50:44;25.60;66.20
77865;DHT22;67061;48.524;9.040;2023-08-24T09:53:15;25.70;66.40
77865;DHT22;67061;48.524;9.040;2023-08-24T09:55:44;25.90;65.90
77865;DHT22;67061;48.524;9.040;2023-08-24T09:58:14;26.00;65.20
77865;DHT22;67061;48.524;9.040;2023-08-24T10:00:45;26.00;65.60
77865;DHT22;67061;48.524;9.040;2023-08-24T10:03:16;26.10;64.70
77865;DHT22;67061;48.524;9.040;2023-08-24T10:05:47;26.20;65.30
77865;DHT22;67061;48.524;9.040;2023-08-24T10:08:15;26.40;64.00
77865;DHT22;67061;48.524;9.040;2023-08-24T10:10:44;26.50;64.20
77865;DHT22;67061;48.524;9.040;2023-08-24T10:13:18;26.60;63.30
77865;DHT22;67061;48.524;9.040;2023-08-24T10:15:49;26.80;63.50
77865;DHT22;67061;48.524;9.040;2023-08-24T10:18:18;27.00;63.40
77865;DHT22;67061;48.524;9.040;2023-08-24T10:20:47;27.20;62.90
77865;DHT22;67061;48.524;9.040;2023-08-24T10:23:14;27.40;62.30
77865;DHT22;67061;48.524;9.040;2023-08-24T10:25:42;27.50;61.00
77865;DHT22;67061;48.524;9.040;2023-08-24T10:28:10;27.70;62.00
77865;DHT22;67061;48.524;9.040;2023-08-24T10:30:38;27.70;60.10
77865;DHT22;67061;48.524;9.040;2023-08-24T10:33:06;27.70;61.70
77865;DHT22;67061;48.524;9.040;2023-08-24T10:35:34;27.70;61.30
77865;DHT22;67061;48.524;9.040;2023-08-24T10:38:02;27.70;61.80
77865;DHT22;67061;48.524;9.040;2023-08-24T10:40:33;27.80;60.90
77865;DHT22;67061;48.524;9.040;2023-08-24T10:43:03;28.00;61.70
77865;DHT22;67061;48.524;9.040;2023-08-24T10:45:55;28.20;61.20
77865;DHT22;67061;48.524;9.040;2023-08-24T10:48:24;28.30;59.00
77865;DHT22;67061;48.524;9.040;2023-08-24T10:51:18;28.50;59.00
77865;DHT22;67061;48.524;9.040;2023-08-24T10:53:52;28.60;58.10
77865;DHT22;67061;48.524;9.040;2023-08-24T10:56:20;28.70;58.40
77865;DHT22;67061;48.524;9.040;2023-08-24T10:59:08;28.80;58.30
77865;DHT22;67061;48.524;9.040;2023-08-24T11:01:38;28.90;58.30
77865;DHT22;67061;48.524;9.040;2023-08-24T11:04:07;29.00;57.90
77865;DHT22;67061;48.524;9.040;2023-08-24T11:06:34;29.00;58.30
77865;DHT22;67061;48.524;9.040;2023-08-24T11:09:08;29.00;58.40
77865;DHT22;67061;48.524;9.040;2023-08-24T11:11:39;29.00;57.70
77865;DHT22;67061;48.524;9.040;2023-08-24T11:14:16;29.00;57.20
77865;DHT22;67061;48.524;9.040;2023-08-24T11:16:45;29.10;57.30
77865;DHT22;67061;48.524;9.040;2023-08-24T11:19:14;29.30;57.70
77865;DHT22;67061;48.524;9.040;2023-08-24T11:21:42;29.40;55.60
77865;DHT22;67061;48.524;9.040;2023-08-24T11:24:10;29.50;56.30
77865;DHT22;67061;48.524;9.040;2023-08-24T11:26:43;29.50;57.50
77865;DHT22;67061;48.524;9.040;2023-08-24T11:29:10;29.90;56.50
77865;DHT22;67061;48.524;9.040;2023-08-24T11:31:37;30.30;55.40
77865;DHT22;67061;48.524;9.040;2023-08-24T11:34:05;30.60;55.00
77865;DHT22;67061;48.524;9.040;2023-08-24T11:36:43;30.80;54.70
77865;DHT22;67061;48.524;9.040;2023-08-24T11:39:15;31.00;52.10
77865;DHT22;67061;48.524;9.040;2023-08-24T11:41:43;31.20;53.00
77865;DHT22;67061;48.524;9.040;2023-08-24T11:44:11;31.50;52.10
77865;DHT22;67061;48.524;9.040;2023-08-24T11:46:38;31.50;50.70
77865;DHT22;67061;48.524;9.040;2023-08-24T11:49:05;31.20;51.60
77865;DHT22;67061;48.524;9.040;2023-08-24T11:51:32;31.30;52.90
77865;DHT22;67061;48.524;9.040;2023-08-24T11:54:02;31.50;49.70
77865;DHT22;67061;48.524;9.040;2023-08-24T11:56:29;31.60;51.90
77865;DHT22;67061;48.524;9.040;2023-08-24T11:58:56;31.80;50.80
77865;DHT22;67061;48.524;9.040;2023-08-24T12:01:24;31.80;49.90
77865;DHT22;67061;48.524;9.040;2023-08-24T12:03:52;31.80;49.70
77865;DHT22;67061;48.524;9.040;2023-08-24T12:06:19;32.00;49.50
77865;DHT22;67061;48.524;9.040;2023-08-24T12:08:47;32.20;48.70
77865;DHT22;67061;48.524;9.040;2023-08-24T12:11:18;32.40;48.20
77865;DHT22;67061;48.524;9.040;2023-08-24T12:13:48;32.70;48.10
77865;DHT22;67061;48.524;9.040;2023-08-24T12:16:16;33.20;46.80
77865;DHT22;67061;48.524;9.040;2023-08-24T12:18:47;33.40;46.50
77865;DHT22;67061;48.524;9.040;2023-08-24T12:21:14;33.30;46.80
77865;DHT22;67061;48.524;9.040;2023-08-24T12:23:41;33.30;46.50
77865;DHT22;67061;48.524;9.040;2023-08-24T12:26:18;33.40;47.50
77865;DHT22;67061;48.524;9.040;2023-08-24T12:28:49;33.50;47.10
77865;DHT22;67061;48.524;9.040;2023-08-24T12:31:17;33.50;46.20
77865;DHT22;67061;48.524;9.040;2023-08-24T12:33:44;33.40;45.70
77865;DHT22;67061;48.524;9.040;2023-08-24T12:36:12;33.10;48.30
77865;DHT22;67061;48.524;9.040;2023-08-24T12:38:38;33.30;47.60
77865;DHT22;67061;48.524;9.040;2023-08-24T12:41:07;33.50;46.10
77865;DHT22;67061;48.524;9.040;2023-08-24T12:43:35;33.70;46.20
77865;DHT22;67061;48.524;9.040;2023-08-24T12:46:02;33.90;46.80
77865;DHT22;67061;48.524;9.040;2023-08-24T12:48:29;34.00;46.50
77865;DHT22;67061;48.524;9.040;2023-08-24T12:50:56;34.20;45.60
77865;DHT22;67061;48.524;9.040;2023-08-24T12:53:23;34.00;44.70
77865;DHT22;67061;48.524;9.040;2023-08-24T12:55:50;34.20;42.90
77865;DHT22;67061;48.524;9.040;2023-08-24T12:58:17;34.20;43.00
77865;DHT22;67061;48.524;9.040;2023-08-24T13:00:47;34.20;44.40
77865;DHT22;67061;48.524;9.040;2023-08-24T13:03:14;34.40;42.80
77865;DHT22;67061;48.524;9.040;2023-08-24T13:05:42;34.50;43.00
77865;DHT22;67061;48.524;9.040;2023-08-24T13:08:09;34.80;42.10
77865;DHT22;67061;48.524;9.040;2023-08-24T13:10:36;34.70;43.20
77865;DHT22;67061;48.524;9.040;2023-08-24T13:13:03;34.70;44.20
77865;DHT22;67061;48.524;9.040;2023-08-24T13:15:30;34.80;43.20
77865;DHT22;67061;48.524;9.040;2023-08-24T13:17:59;34.60;42.50
77865;DHT22;67061;48.524;9.040;2023-08-24T13:20:26;34.40;42.80
77865;DHT22;67061;48.524;9.040;2023-08-24T13:22:53;34.10;42.50
77865;DHT22;67061;48.524;9.040;2023-08-24T13:25:19;33.90;42.90
77865;DHT22;67061;48.524;9.040;2023-08-24T13:27:46;33.80;44.90
77865;DHT22;67061;48.524;9.040;2023-08-24T13:30:14;33.90;44.70
77865;DHT22;67061;48.524;9.040;2023-08-24T13:32:41;33.80;42.50
77865;DHT22;67061;48.524;9.040;2023-08-24T13:35:09;33.80;41.70
77865;DHT22;67061;48.524;9.040;2023-08-24T13:37:36;33.80;42.20
77865;DHT22;67061;48.524;9.040;2023-08-24T13:40:04;33.60;42.50
77865;DHT22;67061;48.524;9.040;2023-08-24T13:42:32;33.70;43.50
77865;DHT22;67061;48.524;9.040;2023-08-24T13:44:59;33.80;43.20
77865;DHT22;67061;48.524;9.040;2023-08-24T13:47:26;34.00;43.10
77865;DHT22;67061;48.524;9.040;2023-08-24T13:49:53;34.10;43.60
77865;DHT22;67061;48.524;9.040;2023-08-24T13:52:21;34.00;44.50
77865;DHT22;67061;48.524;9.040;2023-08-24T13:54:48;33.80;45.00
77865;DHT22;67061;48.524;9.040;2023-08-24T13:57:15;33.60;46.30
77865;DHT22;67061;48.524;9.040;2023-08-24T13:59:43;33.60;44.60
77865;DHT22;67061;48.524;9.040;2023-08-24T14:02:10;33.60;43.20
77865;DHT22;67061;48.524;9.040;2023-08-24T14:04:37;33.60;44.10
77865;DHT22;67061;48.524;9.040;2023-08-24T14:07:04;33.60;43.60
77865;DHT22;67061;48.524;9.040;2023-08-24T14:09:32;33.80;42.30
77865;DHT22;67061;48.524;9.040;2023-08-24T14:11:59;34.00;42.50
77865;DHT22;67061;48.524;9.040;2023-08-24T14:14:26;34.10;43.40
77865;DHT22;67061;48.524;9.040;2023-08-24T14:16:54;34.20;42.40
77865;DHT22;67061;48.524;9.040;2023-08-24T14:19:21;34.30;41.00
77865;DHT22;67061;48.524;9.040;2023-08-24T14:21:48;34.40;42.00
77865;DHT22;67061;48.524;9.040;2023-08-24T14:24:15;34.40;42.00
77865;DHT22;67061;48.524;9.040;2023-08-24T14:26:43;34.20;41.50
77865;DHT22;67061;48.524;9.040;2023-08-24T14:29:12;34.10;42.20
77865;DHT22;67061;48.524;9.040;2023-08-24T14:31:40;34.00;42.40
77865;DHT22;67061;48.524;9.040;2023-08-24T14:34:07;33.90;43.70
77865;DHT22;67061;48.524;9.040;2023-08-24T14:36:33;33.60;43.30
77865;DHT22;67061;48.524;9.040;2023-08-24T14:39:00;33.60;44.20
77865;DHT22;67061;48.524;9.040;2023-08-24T14:41:27;33.50;44.50
77865;DHT22;67061;48.524;9.040;2023-08-24T14:43:55;33.50;43.80
77865;DHT22;67061;48.524;9.040;2023-08-24T14:46:22;33.50;43.90
77865;DHT22;67061;48.524;9.040;2023-08-24T14:48:49;33.50;44.30
77865;DHT22;67061;48.524;9.040;2023-08-24T14:51:16;33.50;44.00
77865;DHT22;67061;48.524;9.040;2023-08-24T14:53:43;33.40;44.20
77865;DHT22;67061;48.524;9.040;2023-08-24T14:56:10;33.40;44.30
77865;DHT22;67061;48.524;9.040;2023-08-24T14:58:37;33.30;44.80
77865;DHT22;67061;48.524;9.040;2023-08-24T15:01:05;33.20;44.10
77865;DHT22;67061;48.524;9.040;2023-08-24T15:03:32;33.20;45.00
77865;DHT22;67061;48.524;9.040;2023-08-24T15:06:00;33.10;45.20
77865;DHT22;67061;48.524;9.040;2023-08-24T15:08:30;33.10;44.90
77865;DHT22;67061;48.524;9.040;2023-08-24T15:10:58;33.00;44.70
77865;DHT22;67061;48.524;9.040;2023-08-24T15:13:26;32.90;45.80
77865;DHT22;67061;48.524;9.040;2023-08-24T15:15:54;33.00;46.10
77865;DHT22;67061;48.524;9.040;2023-08-24T15:18:22;32.80;47.40
77865;DHT22;67061;48.524;9.040;2023-08-24T15:20:49;32.20;50.60
77865;DHT22;67061;48.524;9.040;2023-08-24T15:23:24;31.90;52.50
77865;DHT22;67061;48.524;9.040;2023-08-24T15:25:52;31.70;53.70
77865;DHT22;67061;48.524;9.040;2023-08-24T15:28:19;31.30;54.70
77865;DHT22;67061;48.524;9.040;2023-08-24T15:30:46;31.10;55.70
77865;DHT22;67061;48.524;9.040;2023-08-24T15:33:13;30.70;56.50
77865;DHT22;67061;48.524;9.040;2023-08-24T15:35:42;30.30;57.70